Time;durP1;ratioP1;P1;durP2;ratioP2;P2;SDS_P1;SDS_P2;PMS_P1;PMS_P2;Temp;Humidity;BMP_temperature;BMP_pressure;BME280_temperature;BME280_humidity;BME280_pressure;Samples;Min_cycle;Max_cycle;Signal;HPM_P1;HPM_P2
2022/11/26 00:00:40;;;;;;;32.10;10.68;;;5.60;99.90;;;;;;5021664;28;20525;-85
2022/11/26 00:03:08;;;;;;;34.95;11.27;;;5.50;99.90;;;;;;5025802;28;20049;-84
2022/11/26 00:05:34;;;;;;;44.20;12.07;;;5.70;99.90;;;;;;5050607;28;20034;-86
2022/11/26 00:08:01;;;;;;;36.47;11.05;;;5.50;99.90;;;;;;5034893;28;20094;-86
2022/11/26 00:10:34;;;;;;;40.53;11.63;;;5.50;99.90;;;;;;5025467;28;20128;-86
2022/11/26 00:13:01;;;;;;;34.78;12.32;;;5.50;99.90;;;;;;5036581;28;20063;-86
2022/11/26 00:15:30;;;;;;;41.80;13.05;;;5.50;99.90;;;;;;5020871;28;20120;-86
2022/11/26 00:17:56;;;;;;;46.47;13.05;;;5.50;99.90;;;;;;5021841;28;20487;-86
2022/11/26 00:20:27;;;;;;;39.67;13.13;;;5.40;99.90;;;;;;5026621;28;20099;-86
2022/11/26 00:22:57;;;;;;;45.95;13.15;;;5.50;99.90;;;;;;5021451;28;20587;-86
2022/11/26 00:25:25;;;;;;;50.90;14.10;;;5.40;99.90;;;;;;5025013;28;20498;-85
2022/11/26 00:27:54;;;;;;;43.63;14.15;;;5.30;99.90;;;;;;5021834;28;20422;-86
2022/11/26 00:30:23;;;;;;;40.67;13.80;;;5.40;99.90;;;;;;5020718;28;20045;-86
2022/11/26 00:32:50;;;;;;;38.45;13.73;;;5.30;99.90;;;;;;5019998;28;20071;-85
2022/11/26 00:35:16;;;;;;;51.45;14.38;;;5.30;99.90;;;;;;5051194;28;20102;-86
2022/11/26 00:37:54;;;;;;;36.63;13.95;;;5.20;99.90;;;;;;5020339;28;20041;-85
2022/11/26 00:40:29;;;;;;;50.08;15.45;;;5.30;99.90;;;;;;5050405;28;20118;-86
2022/11/26 00:42:56;;;;;;;57.67;16.10;;;5.30;99.90;;;;;;5020952;28;20040;-85
2022/11/26 00:45:25;;;;;;;46.90;15.15;;;5.30;99.90;;;;;;5036431;28;20041;-86
2022/11/26 00:47:51;;;;;;;38.22;14.25;;;5.20;99.90;;;;;;5037632;28;20036;-86
2022/11/26 00:50:25;;;;;;;39.63;14.88;;;5.20;99.90;;;;;;5021844;28;20045;-86
2022/11/26 00:52:55;;;;;;;45.40;14.07;;;5.10;99.90;;;;;;5049536;28;20091;-86
2022/11/26 00:55:29;;;;;;;47.97;15.48;;;5.00;99.90;;;;;;5050127;28;20513;-86
2022/11/26 00:57:55;;;;;;;40.20;14.30;;;5.00;99.90;;;;;;5022048;28;20072;-87
2022/11/26 01:00:28;;;;;;;46.03;15.32;;;5.10;99.90;;;;;;5040556;28;20036;-86
2022/11/26 01:02:55;;;;;;;46.28;15.60;;;5.10;99.90;;;;;;5023146;28;20037;-86
2022/11/26 01:05:23;;;;;;;44.72;14.57;;;5.10;99.90;;;;;;5028256;28;20052;-86
2022/11/26 01:07:50;;;;;;;45.40;16.15;;;5.10;99.90;;;;;;5036705;28;20036;-85
2022/11/26 01:10:22;;;;;;;46.10;15.80;;;5.10;99.90;;;;;;5035820;28;20029;-84
2022/11/26 01:12:48;;;;;;;55.47;18.10;;;5.00;99.90;;;;;;5024248;28;20052;-86
2022/11/26 01:15:15;;;;;;;46.33;15.63;;;4.90;99.90;;;;;;5039103;28;20072;-86
2022/11/26 01:17:41;;;;;;;52.13;16.50;;;4.90;99.90;;;;;;5020297;28;20039;-84
2022/11/26 01:20:28;;;;;;;42.63;14.60;;;4.90;99.90;;;;;;5048634;28;20041;-86
2022/11/26 01:22:56;;;;;;;39.40;15.68;;;4.90;99.90;;;;;;5018670;28;20123;-86
2022/11/26 01:25:23;;;;;;;48.72;16.77;;;4.90;99.90;;;;;;5019236;28;20474;-86
2022/11/26 01:27:48;;;;;;;48.38;15.05;;;4.80;99.90;;;;;;5048498;28;20037;-83
2022/11/26 01:30:23;;;;;;;51.33;16.88;;;4.90;99.90;;;;;;5019873;28;20370;-86
2022/11/26 01:32:49;;;;;;;;;;;4.90;99.90;;;;;;5036308;28;20045;-84
2022/11/26 01:35:17;;;;;;;55.85;16.48;;;4.80;99.90;;;;;;5036152;28;20378;-86
2022/11/26 01:37:43;;;;;;;47.65;15.82;;;4.90;99.90;;;;;;5034458;28;20037;-86
2022/11/26 01:40:24;;;;;;;46.10;14.98;;;4.80;99.90;;;;;;5036259;28;20045;-83
2022/11/26 01:42:54;;;;;;;39.97;15.43;;;4.80;99.90;;;;;;5038533;28;20125;-86
2022/11/26 01:45:23;;;;;;;53.83;16.50;;;4.80;99.90;;;;;;5050566;28;20541;-86
2022/11/26 01:47:48;;;;;;;47.40;15.68;;;4.80;99.90;;;;;;5067007;28;22574;-85
2022/11/26 01:50:29;;;;;;;46.90;16.52;;;4.80;99.90;;;;;;5017468;28;20500;-86
2022/11/26 01:53:02;;;;;;;51.90;16.48;;;4.80;99.90;;;;;;5034483;28;20130;-84
2022/11/26 01:55:35;;;;;;;45.15;16.20;;;4.70;99.90;;;;;;5049149;28;20547;-84
2022/11/26 01:58:02;;;;;;;50.92;16.27;;;4.90;99.90;;;;;;5049432;28;20417;-85
2022/11/26 02:00:28;;;;;;;49.65;16.08;;;4.80;99.90;;;;;;5050431;28;20045;-85
2022/11/26 02:02:54;;;;;;;50.05;16.73;;;4.70;99.90;;;;;;5024758;28;20348;-87
2022/11/26 02:05:24;;;;;;;45.15;17.55;;;4.80;99.90;;;;;;5018379;28;20044;-86
2022/11/26 02:07:51;;;;;;;54.55;16.83;;;4.70;99.90;;;;;;5031736;28;20044;-85
2022/11/26 02:10:20;;;;;;;56.78;17.98;;;4.70;99.90;;;;;;5017277;28;20119;-86
2022/11/26 02:12:46;;;;;;;55.72;17.85;;;4.70;99.90;;;;;;5035666;28;20956;-87
2022/11/26 02:15:12;;;;;;;46.40;16.42;;;4.70;99.90;;;;;;5018439;28;20482;-86
2022/11/26 02:17:50;;;;;;;45.97;16.65;;;4.70;99.90;;;;;;5049512;28;20083;-86
2022/11/26 02:20:25;;;;;;;53.85;17.77;;;4.70;99.90;;;;;;5035033;28;20396;-86
2022/11/26 02:23:13;;;;;;;56.08;17.73;;;4.60;99.90;;;;;;5049971;28;20048;-87
2022/11/26 02:25:48;;;;;;;49.80;17.85;;;4.60;99.90;;;;;;5019456;28;20067;-86
2022/11/26 02:28:32;;;;;;;47.22;18.85;;;4.60;99.90;;;;;;5035783;28;20041;-86
2022/11/26 02:31:25;;;;;;;44.83;18.00;;;4.50;99.90;;;;;;5018684;28;20602;-87
2022/11/26 02:34:15;;;;;;;51.17;17.50;;;4.50;99.90;;;;;;5033795;28;20515;-86
2022/11/26 02:37:00;;;;;;;66.75;18.85;;;4.60;99.90;;;;;;5048365;28;20500;-86
2022/11/26 02:39:28;;;;;;;70.50;21.50;;;4.50;99.90;;;;;;5048128;28;20073;-85
2022/11/26 02:41:56;;;;;;;50.80;17.98;;;4.60;99.90;;;;;;5018040;28;20305;-86
2022/11/26 02:44:36;;;;;;;58.92;18.10;;;4.50;99.90;;;;;;5037418;28;20072;-86
2022/11/26 02:47:10;;;;;;;62.42;18.52;;;4.50;99.90;;;;;;5018674;28;20036;-86
2022/11/26 02:49:38;;;;;;;54.88;18.00;;;4.60;99.90;;;;;;5067337;28;20076;-86
2022/11/26 02:52:06;;;;;;;56.85;18.10;;;4.60;99.90;;;;;;5038708;28;20044;-86
2022/11/26 02:54:36;;;;;;;55.90;18.10;;;4.60;99.90;;;;;;5047641;28;20456;-85
2022/11/26 02:57:05;;;;;;;56.08;18.48;;;4.60;99.90;;;;;;5047438;28;20037;-86
2022/11/26 02:59:32;;;;;;;57.03;17.30;;;4.70;99.90;;;;;;5037262;28;20601;-86
2022/11/26 03:02:04;;;;;;;56.28;17.75;;;4.50;99.90;;;;;;5048843;28;20106;-86
2022/11/26 03:04:35;;;;;;;54.20;18.10;;;4.60;99.90;;;;;;5048520;28;20346;-86
2022/11/26 03:07:03;;;;;;;54.03;17.58;;;4.60;99.90;;;;;;5066074;28;20045;-86
2022/11/26 03:09:41;;;;;;;49.97;18.55;;;4.50;99.90;;;;;;5049490;28;20045;-86
2022/11/26 03:12:07;;;;;;;54.17;19.10;;;4.50;99.90;;;;;;5034815;28;20124;-86
2022/11/26 03:14:36;;;;;;;51.45;17.85;;;4.50;99.90;;;;;;5019981;28;20041;-86
2022/11/26 03:17:01;;;;;;;55.20;18.88;;;4.50;99.90;;;;;;5018047;28;20458;-86
2022/11/26 03:19:27;;;;;;;55.50;18.13;;;4.50;99.90;;;;;;5020789;28;20037;-86
2022/11/26 03:21:53;;;;;;;65.75;20.88;;;4.50;99.90;;;;;;5012825;28;20037;-86
2022/11/26 03:24:18;;;;;;;55.40;19.05;;;4.50;99.90;;;;;;5021790;28;20041;-84
2022/11/26 03:26:44;;;;;;;53.97;20.05;;;4.50;99.90;;;;;;5022810;28;20075;-85
2022/11/26 03:29:10;;;;;;;59.03;19.95;;;4.50;99.90;;;;;;5023277;28;20033;-85
2022/11/26 03:31:35;;;;;;;56.70;20.58;;;4.50;99.90;;;;;;5041077;28;20047;-86
2022/11/26 03:34:01;;;;;;;57.80;19.58;;;4.50;99.90;;;;;;5069253;28;20045;-86
2022/11/26 03:36:26;;;;;;;63.03;20.83;;;4.60;99.90;;;;;;5039765;28;20068;-86
2022/11/26 03:38:52;;;;;;;58.08;20.70;;;4.60;99.90;;;;;;5036562;28;20453;-85
2022/11/26 03:41:18;;;;;;;54.65;20.60;;;4.50;99.90;;;;;;5022456;28;20047;-84
2022/11/26 03:43:43;;;;;;;57.85;22.05;;;4.50;99.90;;;;;;5038707;28;20052;-86
2022/11/26 03:46:09;;;;;;;60.38;19.58;;;4.60;99.90;;;;;;5022286;28;20041;-87
2022/11/26 03:48:35;;;;;;;48.83;19.17;;;4.60;99.90;;;;;;5023304;28;20056;-86
2022/11/26 03:51:01;;;;;;;52.70;19.85;;;4.60;99.90;;;;;;5020481;28;20025;-85
2022/11/26 03:53:26;;;;;;;61.13;21.55;;;4.60;99.90;;;;;;5020861;28;20183;-87
2022/11/26 03:55:52;;;;;;;59.92;21.20;;;4.50;99.90;;;;;;5020390;28;20052;-86
2022/11/26 03:58:20;;;;;;;63.10;21.75;;;4.50;99.90;;;;;;5039797;28;20559;-85
2022/11/26 04:00:46;;;;;;;55.70;21.38;;;4.50;99.90;;;;;;5039204;28;20048;-86
2022/11/26 04:03:12;;;;;;;64.35;23.27;;;4.50;99.90;;;;;;5051744;28;20094;-86
2022/11/26 04:05:37;;;;;;;71.05;23.70;;;4.50;99.90;;;;;;5020690;28;20041;-86
2022/11/26 04:08:03;;;;;;;68.78;24.45;;;4.50;99.90;;;;;;5039690;28;20124;-85
2022/11/26 04:10:29;;;;;;;68.38;25.10;;;4.60;99.90;;;;;;5053341;28;20106;-85
2022/11/26 04:12:54;;;;;;;75.38;25.83;;;4.50;99.90;;;;;;5052895;28;20120;-86
2022/11/26 04:15:20;;;;;;;67.20;25.30;;;4.50;99.90;;;;;;5039514;28;20471;-86
2022/11/26 04:17:46;;;;;;;74.95;26.73;;;4.50;99.90;;;;;;5022121;28;20044;-85
2022/11/26 04:20:12;;;;;;;80.53;27.60;;;4.40;99.90;;;;;;5021060;28;20547;-86
2022/11/26 04:22:37;;;;;;;75.38;25.38;;;4.40;99.90;;;;;;5023435;28;20329;-85
2022/11/26 04:25:04;;;;;;;72.00;26.55;;;4.40;99.90;;;;;;5068842;28;20085;-85
2022/11/26 04:27:29;;;;;;;85.10;27.20;;;4.40;99.90;;;;;;5036445;28;20044;-86
2022/11/26 04:29:55;;;;;;;80.07;25.85;;;4.40;99.90;;;;;;5024178;28;20404;-86
2022/11/26 04:32:20;;;;;;;79.38;27.10;;;4.40;99.90;;;;;;5071141;28;20067;-86
2022/11/26 04:34:46;;;;;;;75.05;28.08;;;4.40;99.90;;;;;;5037130;28;20446;-85
2022/11/26 04:37:12;;;;;;;74.38;26.55;;;4.40;99.90;;;;;;5023632;28;20044;-86
2022/11/26 04:39:40;;;;;;;62.72;26.15;;;4.40;99.90;;;;;;5019889;28;20060;-85
2022/11/26 04:42:06;;;;;;;74.13;26.15;;;4.40;99.90;;;;;;5040619;28;20463;-86
2022/11/26 04:44:31;;;;;;;75.75;27.23;;;4.30;99.90;;;;;;5038233;28;20110;-86
2022/11/26 04:46:57;;;;;;;81.80;27.20;;;4.40;99.90;;;;;;5037814;28;20040;-86
2022/11/26 04:49:23;;;;;;;73.70;25.95;;;4.30;99.90;;;;;;5036116;28;20064;-86
2022/11/26 04:51:48;;;;;;;73.68;26.10;;;4.40;99.90;;;;;;5068307;28;20111;-85
2022/11/26 04:54:14;;;;;;;65.20;25.70;;;4.40;99.90;;;;;;5034415;28;20395;-86
2022/11/26 04:56:40;;;;;;;71.72;26.77;;;4.50;99.90;;;;;;5021060;28;20037;-86
2022/11/26 04:59:08;;;;;;;70.05;26.00;;;4.40;99.90;;;;;;5039695;28;20124;-85
2022/11/26 05:01:34;;;;;;;63.03;24.73;;;4.40;99.90;;;;;;5020999;28;20041;-86
2022/11/26 05:03:59;;;;;;;81.85;26.77;;;4.50;99.90;;;;;;5020020;28;20051;-84
2022/11/26 05:06:25;;;;;;;68.80;25.67;;;4.40;99.90;;;;;;5051503;28;20555;-86
2022/11/26 05:08:51;;;;;;;77.75;26.30;;;4.50;99.90;;;;;;5025780;28;20458;-86
2022/11/26 05:11:16;;;;;;;68.50;25.23;;;4.40;99.90;;;;;;5051674;28;20468;-84
2022/11/26 05:13:42;;;;;;;75.20;26.05;;;4.50;99.90;;;;;;5065541;28;20035;-85
2022/11/26 05:16:08;;;;;;;71.63;25.80;;;4.40;99.90;;;;;;5020419;28;20380;-86
2022/11/26 05:18:37;;;;;;;65.82;24.55;;;4.50;99.90;;;;;;5035404;28;20092;-87
2022/11/26 05:21:04;;;;;;;76.45;26.25;;;4.60;99.90;;;;;;5035112;28;20075;-85
2022/11/26 05:23:30;;;;;;;67.25;24.65;;;4.50;99.90;;;;;;5036839;28;20402;-85
2022/11/26 05:25:56;;;;;;;68.22;24.13;;;4.50;99.90;;;;;;5020262;28;20041;-85
2022/11/26 05:28:24;;;;;;;64.78;24.52;;;4.60;99.90;;;;;;5024183;28;20480;-85
2022/11/26 05:31:00;;;;;;;67.65;26.25;;;4.60;99.90;;;;;;5038525;28;20087;-86
2022/11/26 05:33:26;;;;;;;68.35;23.92;;;4.60;99.90;;;;;;5066089;28;20102;-86
2022/11/26 05:35:52;;;;;;;60.15;23.88;;;4.60;99.90;;;;;;5024440;28;20732;-86
2022/11/26 05:38:20;;;;;;;71.20;24.42;;;4.70;99.90;;;;;;5035554;28;20033;-86
2022/11/26 05:40:46;;;;;;;65.15;24.55;;;4.70;99.90;;;;;;5051358;28;20041;-85
2022/11/26 05:43:12;;;;;;;62.53;22.80;;;4.60;99.90;;;;;;5050598;28;20041;-86
2022/11/26 05:45:37;;;;;;;64.65;23.77;;;4.60;99.90;;;;;;5036123;28;20049;-86
2022/11/26 05:48:03;;;;;;;66.45;23.83;;;4.60;99.90;;;;;;5049208;28;20037;-86
2022/11/26 05:50:29;;;;;;;67.47;25.00;;;4.80;99.90;;;;;;5049393;28;20155;-86
2022/11/26 05:52:54;;;;;;;77.93;25.98;;;4.70;99.90;;;;;;5036867;28;20296;-86
2022/11/26 05:55:20;;;;;;;71.10;24.83;;;4.70;99.90;;;;;;5018670;28;20080;-86
2022/11/26 05:57:46;;;;;;;68.63;24.50;;;4.60;99.90;;;;;;5019281;28;20076;-84
2022/11/26 06:00:12;;;;;;;67.35;25.27;;;4.60;99.90;;;;;;5050085;28;20029;-85
2022/11/26 06:02:38;;;;;;;70.65;24.73;;;4.60;99.90;;;;;;5064753;28;20136;-86
2022/11/26 06:05:04;;;;;;;80.88;26.17;;;4.50;99.90;;;;;;5035053;28;20097;-86
2022/11/26 06:07:30;;;;;;;67.20;25.20;;;4.50;99.90;;;;;;5019133;28;20047;-86
2022/11/26 06:09:56;;;;;;;80.53;27.23;;;4.60;99.90;;;;;;5017692;28;20049;-86
2022/11/26 06:12:21;;;;;;;69.80;25.42;;;4.50;99.90;;;;;;5036715;28;20072;-85
2022/11/26 06:14:47;;;;;;;77.65;26.30;;;4.50;99.90;;;;;;5020737;28;20043;-86
2022/11/26 06:17:13;;;;;;;86.20;26.88;;;4.60;99.90;;;;;;5038701;28;20037;-87
2022/11/26 06:19:38;;;;;;;70.72;26.48;;;4.50;99.90;;;;;;5018135;28;20032;-85
2022/11/26 06:22:04;;;;;;;71.47;25.98;;;4.50;99.90;;;;;;5048683;28;20037;-85
2022/11/26 06:24:30;;;;;;;66.38;25.02;;;4.40;99.90;;;;;;5017755;28;20465;-85
2022/11/26 06:26:56;;;;;;;77.03;25.15;;;4.50;99.90;;;;;;5035293;28;20052;-85
2022/11/26 06:29:22;;;;;;;78.80;23.55;;;4.50;99.90;;;;;;5038093;28;20168;-85
2022/11/26 06:31:47;;;;;;;72.55;24.50;;;4.30;99.90;;;;;;5021435;28;20460;-85
2022/11/26 06:34:16;;;;;;;45.38;15.82;;;4.40;99.90;;;;;;5033816;28;20056;-85
2022/11/26 06:36:42;;;;;;;59.75;16.45;;;4.40;99.90;;;;;;5035301;28;20033;-86
2022/11/26 06:39:09;;;;;;;46.08;18.90;;;4.40;99.90;;;;;;5033518;28;20036;-85
2022/11/26 06:41:35;;;;;;;51.78;20.25;;;4.40;99.90;;;;;;5025535;28;20092;-85
2022/11/26 06:44:01;;;;;;;53.55;19.90;;;4.40;99.90;;;;;;5018059;28;20052;-84
2022/11/26 06:46:28;;;;;;;58.05;21.67;;;4.50;99.90;;;;;;5018697;28;20028;-85
2022/11/26 06:48:53;;;;;;;73.47;20.73;;;4.50;99.90;;;;;;5018203;28;20538;-86
2022/11/26 06:51:20;;;;;;;53.42;19.60;;;4.50;99.90;;;;;;5048163;28;20083;-85
2022/11/26 06:53:49;;;;;;;67.30;20.58;;;4.50;99.90;;;;;;5028111;28;20169;-86
2022/11/26 06:56:15;;;;;;;54.67;20.67;;;4.50;99.90;;;;;;5049304;28;20139;-86
2022/11/26 06:58:41;;;;;;;45.92;18.73;;;4.40;99.90;;;;;;5046986;28;20043;-86
2022/11/26 07:01:15;;;;;;;55.63;20.58;;;4.40;99.90;;;;;;5063836;28;20249;-86
2022/11/26 07:03:40;;;;;;;50.35;20.20;;;4.50;99.90;;;;;;5017556;28;20041;-86
2022/11/26 07:06:27;;;;;;;53.30;20.38;;;4.40;99.90;;;;;;5018519;28;20724;-86
2022/11/26 07:08:56;;;;;;;55.63;20.27;;;4.30;99.90;;;;;;5030386;28;20112;-85
2022/11/26 07:11:25;;;;;;;48.08;18.33;;;4.40;99.90;;;;;;5034744;28;20240;-85
2022/11/26 07:13:51;;;;;;;49.30;19.05;;;4.40;99.90;;;;;;5015383;28;20048;-86
2022/11/26 07:16:17;;;;;;;56.95;18.85;;;4.40;99.90;;;;;;5035253;28;20113;-85
2022/11/26 07:18:47;;;;;;;51.55;19.73;;;4.40;99.90;;;;;;5064544;28;20060;-86
2022/11/26 07:21:16;;;;;;;56.00;19.02;;;4.50;99.90;;;;;;5032458;28;20044;-86
2022/11/26 07:23:41;;;;;;;53.42;19.23;;;4.50;99.90;;;;;;5061175;28;20029;-85
2022/11/26 07:26:09;;;;;;;61.67;20.77;;;4.60;99.90;;;;;;5019772;28;20453;-85
2022/11/26 07:28:35;;;;;;;60.35;20.45;;;4.50;99.90;;;;;;5018601;28;20067;-86
2022/11/26 07:31:06;;;;;;;58.28;21.25;;;4.70;99.90;;;;;;5020382;28;20040;-85
2022/11/26 07:33:32;;;;;;;51.85;21.90;;;4.70;99.90;;;;;;5032402;28;20350;-85
2022/11/26 07:35:59;;;;;;;52.38;21.27;;;4.80;99.90;;;;;;5016870;28;20122;-86
2022/11/26 07:38:26;;;;;;;56.40;21.55;;;4.80;99.90;;;;;;5020417;28;20033;-86
2022/11/26 07:40:51;;;;;;;62.80;23.08;;;4.90;99.90;;;;;;5017142;28;20083;-85
2022/11/26 07:43:17;;;;;;;62.40;23.33;;;4.90;99.90;;;;;;5019184;28;20045;-84
2022/11/26 07:45:43;;;;;;;62.58;24.00;;;5.10;99.90;;;;;;5047089;28;20041;-85
2022/11/26 07:48:08;;;;;;;64.93;23.27;;;5.20;99.90;;;;;;5035940;28;20040;-85
2022/11/26 07:50:34;;;;;;;65.00;24.05;;;5.30;99.90;;;;;;5049259;28;20052;-86
2022/11/26 07:53:00;;;;;;;75.53;25.58;;;5.40;99.90;;;;;;5016674;28;20566;-86
2022/11/26 07:55:25;;;;;;;63.13;25.30;;;5.50;99.90;;;;;;5018202;28;20047;-87
2022/11/26 07:57:51;;;;;;;70.68;26.23;;;5.60;99.90;;;;;;5031361;28;20033;-86
2022/11/26 08:00:17;;;;;;;64.93;23.70;;;5.70;99.90;;;;;;5031689;28;20531;-86
2022/11/26 08:02:43;;;;;;;72.85;25.38;;;5.80;99.90;;;;;;5019698;28;20116;-85
2022/11/26 08:05:08;;;;;;;71.88;26.20;;;5.90;99.90;;;;;;5023545;28;20059;-86
2022/11/26 08:07:35;;;;;;;65.78;25.90;;;5.80;99.90;;;;;;5018409;28;20157;-86
2022/11/26 08:10:01;;;;;;;77.65;27.15;;;5.80;99.90;;;;;;5034725;28;20068;-86
2022/11/26 08:12:27;;;;;;;60.85;25.05;;;5.80;99.90;;;;;;5050645;28;20082;-85
2022/11/26 08:14:52;;;;;;;59.10;24.95;;;5.90;99.90;;;;;;5022219;28;20045;-85
2022/11/26 08:17:18;;;;;;;62.22;25.38;;;5.90;99.90;;;;;;5052935;28;20155;-85
2022/11/26 08:19:44;;;;;;;65.95;25.17;;;6.00;99.90;;;;;;5026054;28;20081;-85
2022/11/26 08:22:09;;;;;;;66.30;23.88;;;5.90;99.90;;;;;;5036608;28;20033;-86
2022/11/26 08:24:35;;;;;;;65.40;25.17;;;6.00;99.90;;;;;;5021978;28;20076;-86
2022/11/26 08:27:01;;;;;;;59.05;26.02;;;6.00;99.90;;;;;;5053063;28;20052;-84
2022/11/26 08:29:26;;;;;;;56.88;22.63;;;6.10;99.90;;;;;;5051107;28;20044;-85
2022/11/26 08:31:54;;;;;;;51.45;21.75;;;6.10;99.90;;;;;;5048945;28;20040;-86
2022/11/26 08:34:20;;;;;;;50.65;21.35;;;6.10;99.90;;;;;;5022998;28;20339;-86
2022/11/26 08:36:46;;;;;;;51.60;21.88;;;6.10;99.90;;;;;;5035793;28;20481;-86
2022/11/26 08:39:16;;;;;;;54.42;22.67;;;6.20;99.90;;;;;;5021188;28;20071;-86
2022/11/26 08:41:42;;;;;;;52.05;20.23;;;6.30;99.90;;;;;;5028333;28;20064;-84
2022/11/26 08:44:07;;;;;;;47.85;21.33;;;6.30;99.90;;;;;;5021060;28;20044;-85
2022/11/26 08:46:38;;;;;;;49.40;22.05;;;6.50;99.90;;;;;;5022086;28;20041;-86
2022/11/26 08:49:04;;;;;;;49.53;20.98;;;6.50;99.90;;;;;;5020774;28;20045;-86
2022/11/26 08:51:30;;;;;;;49.58;21.08;;;6.60;99.90;;;;;;5022104;28;20440;-86
2022/11/26 08:53:56;;;;;;;46.20;20.60;;;6.60;99.90;;;;;;5023635;28;20080;-86
2022/11/26 08:56:22;;;;;;;48.85;20.35;;;6.70;99.90;;;;;;5051487;28;20691;-86
2022/11/26 08:58:50;;;;;;;46.65;20.88;;;6.70;99.90;;;;;;5064929;28;20628;-85
2022/11/26 09:01:25;;;;;;;47.95;20.13;;;6.70;99.90;;;;;;5048662;28;20075;-85
2022/11/26 09:03:53;;;;;;;48.92;19.83;;;6.80;99.90;;;;;;5052298;28;20121;-86
2022/11/26 09:06:40;;;;;;;42.17;19.45;;;6.80;99.90;;;;;;5024965;28;20041;-85
2022/11/26 09:09:13;;;;;;;42.42;19.95;;;6.80;99.90;;;;;;5035661;28;20507;-86
2022/11/26 09:11:46;;;;;;;42.60;18.27;;;6.90;99.90;;;;;;5051638;28;20040;-86
2022/11/26 09:14:13;;;;;;;44.00;19.83;;;6.90;99.90;;;;;;5035793;28;20136;-86
2022/11/26 09:16:39;;;;;;;43.65;18.60;;;6.90;99.90;;;;;;5036750;28;20041;-86
2022/11/26 09:19:10;;;;;;;38.15;18.75;;;7.00;99.90;;;;;;5067867;28;20091;-86
2022/11/26 09:21:35;;;;;;;47.30;19.85;;;7.10;99.90;;;;;;5047807;28;20516;-86
2022/11/26 09:24:02;;;;;;;42.78;18.90;;;7.10;99.90;;;;;;5018946;28;20029;-86
2022/11/26 09:26:30;;;;;;;47.63;18.05;;;7.20;99.90;;;;;;5067478;28;20045;-86
2022/11/26 09:28:56;;;;;;;43.15;17.88;;;7.20;99.90;;;;;;5022748;28;20033;-85
2022/11/26 09:31:24;;;;;;;47.42;18.63;;;7.30;99.90;;;;;;5025287;28;20035;-85
2022/11/26 09:33:49;;;;;;;35.45;17.92;;;7.30;99.90;;;;;;5067375;28;21317;-86
2022/11/26 09:36:17;;;;;;;39.25;17.33;;;7.50;99.90;;;;;;5050718;28;20529;-85
2022/11/26 09:38:43;;;;;;;43.10;17.52;;;7.40;99.90;;;;;;5047280;28;20128;-86
2022/11/26 09:41:33;;;;;;;42.17;17.88;;;7.50;99.90;;;;;;5034723;28;20044;-86
2022/11/26 09:44:37;;;;;;;39.03;17.08;;;7.60;99.90;;;;;;5049364;28;20041;-84
2022/11/26 09:47:19;;;;;;;39.72;17.83;;;7.60;99.90;;;;;;5034871;28;20323;-85
2022/11/26 09:49:58;;;;;;;42.30;17.48;;;7.70;99.90;;;;;;5024511;28;20425;-86
2022/11/26 09:52:32;;;;;;;39.40;17.88;;;7.80;99.90;;;;;;5024698;28;20057;-85
2022/11/26 09:55:17;;;;;;;39.20;16.20;;;7.80;99.90;;;;;;5029942;28;20107;-85
2022/11/26 09:57:49;;;;;;;42.17;17.23;;;7.90;99.90;;;;;;5016924;28;20029;-85
2022/11/26 10:00:43;;;;;;;44.95;17.58;;;7.90;99.90;;;;;;5049773;28;20044;-85
2022/11/26 10:03:19;;;;;;;49.28;17.60;;;8.00;99.90;;;;;;5017502;28;20053;-85
2022/11/26 10:06:01;;;;;;;41.33;17.15;;;8.10;99.90;;;;;;5034198;28;20764;-85
2022/11/26 10:08:57;;;;;;;35.67;16.00;;;8.20;99.90;;;;;;5050787;28;20335;-85
2022/11/26 10:11:22;;;;;;;38.22;16.10;;;8.20;99.90;;;;;;5047843;28;20090;-86
2022/11/26 10:14:03;;;;;;;40.28;17.85;;;8.20;99.90;;;;;;5048610;28;20045;-85
2022/11/26 10:16:34;;;;;;;36.95;16.30;;;8.30;99.90;;;;;;5049101;28;20049;-85
2022/11/26 10:19:03;;;;;;;43.83;17.52;;;8.40;99.90;;;;;;5068142;28;20412;-85
2022/11/26 10:21:36;;;;;;;37.80;17.48;;;8.40;99.90;;;;;;5048484;28;20036;-85
2022/11/26 10:24:33;;;;;;;38.80;16.85;;;8.40;99.90;;;;;;5049527;28;20147;-86
2022/11/26 10:27:09;;;;;;;36.05;17.15;;;8.60;99.90;;;;;;5018036;28;20471;-85
2022/11/26 10:29:42;;;;;;;43.95;19.40;;;8.60;99.90;;;;;;5032169;28;20037;-86
2022/11/26 10:32:29;;;;;;;41.45;18.10;;;8.60;99.90;;;;;;5048014;28;20041;-86
2022/11/26 10:34:57;;;;;;;40.47;16.60;;;8.70;99.90;;;;;;5024929;28;20073;-85
2022/11/26 10:37:24;;;;;;;41.28;17.73;;;8.70;99.90;;;;;;5016880;28;20044;-86
2022/11/26 10:39:56;;;;;;;41.83;18.33;;;8.80;99.90;;;;;;5049569;28;20032;-85
2022/11/26 10:42:23;;;;;;;42.58;17.38;;;8.80;99.90;;;;;;5017557;28;20037;-85
2022/11/26 10:44:51;;;;;;;42.65;19.67;;;8.80;99.90;;;;;;5063837;28;20045;-86
2022/11/26 10:47:25;;;;;;;37.05;18.88;;;8.80;99.90;;;;;;5018497;28;20037;-86
2022/11/26 10:50:00;;;;;;;39.63;19.05;;;8.80;99.90;;;;;;5015443;28;20078;-86
2022/11/26 10:52:32;;;;;;;37.60;18.90;;;8.90;99.90;;;;;;5034073;28;20071;-85
2022/11/26 10:55:29;;;;;;;40.97;18.52;;;8.80;99.90;;;;;;5017747;28;20156;-86
2022/11/26 10:58:04;;;;;;;38.00;18.27;;;8.90;99.90;;;;;;5035694;28;20060;-86
2022/11/26 11:00:56;;;;;;;41.83;18.85;;;8.90;99.90;;;;;;5047617;28;20320;-84
2022/11/26 11:03:34;;;;;;;40.17;18.20;;;8.80;99.90;;;;;;5047263;28;20043;-85
2022/11/26 11:06:24;;;;;;;34.78;18.30;;;8.90;99.90;;;;;;5021895;28;20033;-85
2022/11/26 11:08:51;;;;;;;37.03;17.67;;;8.90;99.90;;;;;;5034202;28;20398;-85
2022/11/26 11:11:23;;;;;;;39.42;18.25;;;9.00;99.90;;;;;;5054471;28;20091;-86
2022/11/26 11:13:49;;;;;;;37.85;17.65;;;9.00;99.90;;;;;;5047713;28;20037;-85
2022/11/26 11:16:24;;;;;;;37.05;17.10;;;9.00;99.90;;;;;;5018787;28;20401;-85
2022/11/26 11:19:02;;;;;;;41.47;18.02;;;9.10;99.90;;;;;;5027888;28;20520;-85
2022/11/26 11:21:36;;;;;;;35.78;15.23;;;9.10;99.90;;;;;;5020582;28;20059;-85
2022/11/26 11:24:16;;;;;;;38.35;16.23;;;9.10;99.90;;;;;;5016220;28;20045;-85
2022/11/26 11:26:48;;;;;;;39.17;17.05;;;9.30;99.90;;;;;;5020776;28;20068;-85
2022/11/26 11:29:35;;;;;;;37.53;17.90;;;9.30;99.90;;;;;;5064191;28;20033;-85
2022/11/26 11:32:04;;;;;;;38.95;16.40;;;9.30;99.90;;;;;;5048888;28;20045;-86
2022/11/26 11:34:32;;;;;;;41.47;15.65;;;9.30;99.90;;;;;;5049359;28;20049;-86
2022/11/26 11:37:23;;;;;;;32.05;15.77;;;9.20;99.90;;;;;;5032193;28;20033;-85
2022/11/26 11:40:05;;;;;;;30.58;16.00;;;9.30;99.90;;;;;;5048945;28;20995;-85
2022/11/26 11:42:31;;;;;;;33.33;16.00;;;9.30;99.90;;;;;;5065465;28;20557;-85
2022/11/26 11:44:59;;;;;;;35.50;15.85;;;9.30;99.90;;;;;;5041069;28;20593;-86
2022/11/26 11:47:31;;;;;;;34.70;15.57;;;9.40;99.90;;;;;;5058044;28;20076;-85
2022/11/26 11:50:28;;;;;;;31.75;14.93;;;9.30;99.90;;;;;;5066462;28;20106;-85
2022/11/26 11:53:27;;;;;;;27.60;15.48;;;9.50;99.90;;;;;;5021236;28;20045;-86
2022/11/26 11:56:25;;;;;;;31.15;15.95;;;9.40;99.90;;;;;;5038682;28;20084;-85
2022/11/26 11:59:06;;;;;;;35.58;14.93;;;9.40;99.90;;;;;;5023373;28;20574;-86
2022/11/26 12:01:59;;;;;;;31.42;15.95;;;9.40;99.90;;;;;;5040548;28;20032;-86
2022/11/26 12:04:38;;;;;;;35.63;15.30;;;9.40;99.90;;;;;;5033941;28;20060;-85
2022/11/26 12:07:33;;;;;;;34.90;15.13;;;9.50;99.90;;;;;;5050649;28;20052;-85
2022/11/26 12:10:13;;;;;;;29.23;15.23;;;9.40;99.90;;;;;;5069994;28;20110;-85
2022/11/26 12:12:48;;;;;;;34.20;14.98;;;9.30;99.90;;;;;;5051275;28;20591;-84
2022/11/26 12:15:32;;;;;;;31.38;15.25;;;9.30;99.90;;;;;;5022747;28;20036;-85
2022/11/26 12:18:26;;;;;;;33.67;16.13;;;9.30;99.90;;;;;;5065129;28;20496;-86
2022/11/26 12:20:58;;;;;;;33.45;15.93;;;9.20;99.90;;;;;;5027872;28;20326;-83
2022/11/26 12:23:36;;;;;;;44.03;16.27;;;9.20;99.90;;;;;;5016000;28;20454;-86
2022/11/26 12:26:21;;;;;;;29.25;15.85;;;9.20;99.90;;;;;;5037506;28;20041;-86
2022/11/26 12:28:59;;;;;;;34.37;16.30;;;9.20;99.90;;;;;;5067589;28;20045;-85
2022/11/26 12:31:30;;;;;;;32.53;16.90;;;9.30;99.90;;;;;;5048833;28;20391;-86
2022/11/26 12:34:10;;;;;;;36.88;17.67;;;9.30;99.90;;;;;;5023123;28;20044;-85
2022/11/26 12:36:43;;;;;;;40.13;18.25;;;9.20;99.90;;;;;;5053035;28;20048;-85
2022/11/26 12:39:17;;;;;;;35.45;17.40;;;9.30;99.90;;;;;;5036488;28;20040;-86
2022/11/26 12:42:01;;;;;;;38.97;18.60;;;9.30;99.90;;;;;;5052888;28;20460;-86
2022/11/26 12:44:40;;;;;;;38.92;18.05;;;9.20;99.90;;;;;;5039526;28;20037;-86
2022/11/26 12:47:18;;;;;;;38.58;19.02;;;9.20;99.90;;;;;;5022115;28;20045;-85
2022/11/26 12:49:49;;;;;;;40.35;18.38;;;9.20;99.90;;;;;;5023181;28;20508;-86
2022/11/26 12:52:28;;;;;;;31.33;17.45;;;9.20;99.90;;;;;;5052735;28;20084;-84
2022/11/26 12:55:22;;;;;;;34.55;18.02;;;9.20;99.90;;;;;;5037350;28;20084;-85